sensor_id;sensor_type;location;lat;lon;timestamp;temperature;humidity
34153;DHT22;20426;48.372;10.888;2024-03-08T00:00:06;2.80;99.90
34153;DHT22;20426;48.372;10.888;2024-03-08T00:00:42;2.80;99.90
34153;DHT22;20426;48.372;10.888;2024-03-08T00:01:13;2.90;99.90
34153;DHT22;20426;48.372;10.888;2024-03-08T00:01:44;2.80;99.90
34153;DHT22;20426;48.372;10.888;2024-03-08T00:02:15;2.90;99.90
34153;DHT22;20426;48.372;10.888;2024-03-08T00:02:46;2.90;99.90
34153;DHT22;20426;48.372;10.888;2024-03-08T00:03:17;2.90;99.90
34153;DHT22;20426;48.372;10.888;2024-03-08T00:03:48;2.80;99.90
34153;DHT22;20426;48.372;10.888;2024-03-08T00:04:18;2.90;99.90
34153;DHT22;20426;48.372;10.888;2024-03-08T00:04:49;2.90;99.90
34153;DHT22;20426;48.372;10.888;2024-03-08T00:05:20;2.90;99.90
34153;DHT22;20426;48.372;10.888;2024-03-08T00:05:50;2.90;99.90
34153;DHT22;20426;48.372;10.888;2024-03-08T00:06:21;2.80;99.90
34153;DHT22;20426;48.372;10.888;2024-03-08T00:06:52;2.80;99.90
34153;DHT22;20426;48.372;10.888;2024-03-08T00:07:22;2.90;99.90
34153;DHT22;20426;48.372;10.888;2024-03-08T00:07:53;2.80;99.90
34153;DHT22;20426;48.372;10.888;2024-03-08T00:08:24;2.90;99.90
34153;DHT22;20426;48.372;10.888;2024-03-08T00:08:55;2.80;99.90
34153;DHT22;20426;48.372;10.888;2024-03-08T00:09:26;2.80;99.90
34153;DHT22;20426;48.372;10.888;2024-03-08T00:09:57;2.90;99.90
34153;DHT22;20426;48.372;10.888;2024-03-08T00:10:28;2.80;99.90
34153;DHT22;20426;48.372;10.888;2024-03-08T00:11:02;2.80;99.90
34153;DHT22;20426;48.372;10.888;2024-03-08T00:11:33;2.80;99.90
34153;DHT22;20426;48.372;10.888;2024-03-08T00:12:03;2.80;99.90
34153;DHT22;20426;48.372;10.888;2024-03-08T00:12:34;2.80;99.90
34153;DHT22;20426;48.372;10.888;2024-03-08T00:13:05;2.80;99.90
34153;DHT22;20426;48.372;10.888;2024-03-08T00:13:37;2.80;99.90
34153;DHT22;20426;48.372;10.888;2024-03-08T00:14:07;2.80;99.90
34153;DHT22;20426;48.372;10.888;2024-03-08T00:14:38;2.80;99.90
34153;DHT22;20426;48.372;10.888;2024-03-08T00:15:14;2.70;99.90
34153;DHT22;20426;48.372;10.888;2024-03-08T00:15:45;2.80;99.90
34153;DHT22;20426;48.372;10.888;2024-03-08T00:16:15;2.80;99.90
34153;DHT22;20426;48.372;10.888;2024-03-08T00:16:46;2.80;99.90
34153;DHT22;20426;48.372;10.888;2024-03-08T00:17:17;2.80;99.90
34153;DHT22;20426;48.372;10.888;2024-03-08T00:17:47;2.80;99.90
34153;DHT22;20426;48.372;10.888;2024-03-08T00:18:18;2.80;99.90
34153;DHT22;20426;48.372;10.888;2024-03-08T00:18:49;2.80;99.90
34153;DHT22;20426;48.372;10.888;2024-03-08T00:19:20;2.80;99.90
34153;DHT22;20426;48.372;10.888;2024-03-08T00:19:51;2.80;99.90
34153;DHT22;20426;48.372;10.888;2024-03-08T00:20:21;2.80;99.90
34153;DHT22;20426;48.372;10.888;2024-03-08T00:20:53;2.80;99.90
34153;DHT22;20426;48.372;10.888;2024-03-08T00:21:24;2.80;99.90
34153;DHT22;20426;48.372;10.888;2024-03-08T00:21:55;2.80;99.90
34153;DHT22;20426;48.372;10.888;2024-03-08T00:22:25;2.80;99.90
34153;DHT22;20426;48.372;10.888;2024-03-08T00:22:56;2.80;99.90
34153;DHT22;20426;48.372;10.888;2024-03-08T00:23:28;2.80;99.90
34153;DHT22;20426;48.372;10.888;2024-03-08T00:23:59;2.70;99.90
34153;DHT22;20426;48.372;10.888;2024-03-08T00:24:29;2.80;99.90
34153;DHT22;20426;48.372;10.888;2024-03-08T00:25:05;2.70;99.90
34153;DHT22;20426;48.372;10.888;2024-03-08T00:25:36;2.70;99.90
34153;DHT22;20426;48.372;10.888;2024-03-08T00:26:07;2.70;99.90
34153;DHT22;20426;48.372;10.888;2024-03-08T00:26:38;2.70;99.90
34153;DHT22;20426;48.372;10.888;2024-03-08T00:27:09;2.70;99.90
34153;DHT22;20426;48.372;10.888;2024-03-08T00:27:40;2.70;99.90
34153;DHT22;20426;48.372;10.888;2024-03-08T00:28:14;2.70;99.90
34153;DHT22;20426;48.372;10.888;2024-03-08T00:28:45;2.60;99.90
34153;DHT22;20426;48.372;10.888;2024-03-08T00:29:16;2.60;99.90
34153;DHT22;20426;48.372;10.888;2024-03-08T00:29:47;2.70;99.90
34153;DHT22;20426;48.372;10.888;2024-03-08T00:30:17;2.70;99.90
34153;DHT22;20426;48.372;10.888;2024-03-08T00:30:48;2.70;99.90
34153;DHT22;20426;48.372;10.888;2024-03-08T00:31:19;2.70;99.90
34153;DHT22;20426;48.372;10.888;2024-03-08T00:31:50;2.60;99.90
34153;DHT22;20426;48.372;10.888;2024-03-08T00:32:21;2.60;99.90
34153;DHT22;20426;48.372;10.888;2024-03-08T00:32:54;2.60;99.90
34153;DHT22;20426;48.372;10.888;2024-03-08T00:33:25;2.60;99.90
34153;DHT22;20426;48.372;10.888;2024-03-08T00:33:56;2.60;99.90
34153;DHT22;20426;48.372;10.888;2024-03-08T00:34:27;2.60;99.90
34153;DHT22;20426;48.372;10.888;2024-03-08T00:34:58;2.60;99.90
34153;DHT22;20426;48.372;10.888;2024-03-08T00:35:28;2.60;99.90
34153;DHT22;20426;48.372;10.888;2024-03-08T00:35:59;2.60;99.90
34153;DHT22;20426;48.372;10.888;2024-03-08T00:36:29;2.60;99.90
34153;DHT22;20426;48.372;10.888;2024-03-08T00:37:00;2.60;99.90
34153;DHT22;20426;48.372;10.888;2024-03-08T00:37:31;2.60;99.90
34153;DHT22;20426;48.372;10.888;2024-03-08T00:38:02;2.60;99.90
34153;DHT22;20426;48.372;10.888;2024-03-08T00:38:32;2.60;99.90
34153;DHT22;20426;48.372;10.888;2024-03-08T00:39:04;2.60;99.90
34153;DHT22;20426;48.372;10.888;2024-03-08T00:39:38;2.60;99.90
34153;DHT22;20426;48.372;10.888;2024-03-08T00:40:09;2.60;99.90
34153;DHT22;20426;48.372;10.888;2024-03-08T00:40:39;2.60;99.90
34153;DHT22;20426;48.372;10.888;2024-03-08T00:41:11;2.60;99.90
34153;DHT22;20426;48.372;10.888;2024-03-08T00:41:41;2.60;99.90
34153;DHT22;20426;48.372;10.888;2024-03-08T00:42:12;2.60;99.90
34153;DHT22;20426;48.372;10.888;2024-03-08T00:42:43;2.60;99.90
34153;DHT22;20426;48.372;10.888;2024-03-08T00:43:14;2.60;99.90
34153;DHT22;20426;48.372;10.888;2024-03-08T00:43:46;2.60;99.90
34153;DHT22;20426;48.372;10.888;2024-03-08T00:44:18;2.60;99.90
34153;DHT22;20426;48.372;10.888;2024-03-08T00:44:48;2.50;99.90
34153;DHT22;20426;48.372;10.888;2024-03-08T00:45:21;2.50;99.90
34153;DHT22;20426;48.372;10.888;2024-03-08T00:45:54;2.50;99.90
34153;DHT22;20426;48.372;10.888;2024-03-08T00:46:24;2.50;99.90
34153;DHT22;20426;48.372;10.888;2024-03-08T00:46:55;2.50;99.90
34153;DHT22;20426;48.372;10.888;2024-03-08T00:47:26;2.40;99.90
34153;DHT22;20426;48.372;10.888;2024-03-08T00:47:57;2.50;99.90
34153;DHT22;20426;48.372;10.888;2024-03-08T00:48:28;2.50;99.90
34153;DHT22;20426;48.372;10.888;2024-03-08T00:48:58;2.50;99.90
34153;DHT22;20426;48.372;10.888;2024-03-08T00:49:29;2.50;99.90
34153;DHT22;20426;48.372;10.888;2024-03-08T00:50:00;2.50;99.90
34153;DHT22;20426;48.372;10.888;2024-03-08T00:50:34;2.50;99.90
34153;DHT22;20426;48.372;10.888;2024-03-08T00:51:05;2.50;99.90
34153;DHT22;20426;48.372;10.888;2024-03-08T00:51:35;2.40;99.90
34153;DHT22;20426;48.372;10.888;2024-03-08T00:52:06;2.40;99.90
34153;DHT22;20426;48.372;10.888;2024-03-08T00:52:40;2.50;99.90
34153;DHT22;20426;48.372;10.888;2024-03-08T00:53:12;2.50;99.90
34153;DHT22;20426;48.372;10.888;2024-03-08T00:53:42;2.50;99.90
34153;DHT22;20426;48.372;10.888;2024-03-08T00:54:13;2.50;99.90
34153;DHT22;20426;48.372;10.888;2024-03-08T00:54:44;2.50;99.90
34153;DHT22;20426;48.372;10.888;2024-03-08T00:55:14;2.50;99.90
34153;DHT22;20426;48.372;10.888;2024-03-08T00:55:45;2.50;99.90
34153;DHT22;20426;48.372;10.888;2024-03-08T00:56:16;2.50;99.90
34153;DHT22;20426;48.372;10.888;2024-03-08T00:56:47;2.50;99.90
34153;DHT22;20426;48.372;10.888;2024-03-08T00:57:18;2.50;99.90
34153;DHT22;20426;48.372;10.888;2024-03-08T00:57:48;2.50;99.90
34153;DHT22;20426;48.372;10.888;2024-03-08T00:58:19;2.50;99.90
34153;DHT22;20426;48.372;10.888;2024-03-08T00:58:50;2.50;99.90
34153;DHT22;20426;48.372;10.888;2024-03-08T00:59:21;2.50;99.90
34153;DHT22;20426;48.372;10.888;2024-03-08T00:59:52;2.50;99.90
34153;DHT22;20426;48.372;10.888;2024-03-08T01:00:23;2.50;99.90
34153;DHT22;20426;48.372;10.888;2024-03-08T01:00:54;2.50;99.90
34153;DHT22;20426;48.372;10.888;2024-03-08T01:01:25;2.50;99.90
34153;DHT22;20426;48.372;10.888;2024-03-08T01:01:56;2.50;99.90
34153;DHT22;20426;48.372;10.888;2024-03-08T01:02:27;2.50;99.90
34153;DHT22;20426;48.372;10.888;2024-03-08T01:03:00;2.40;99.90
34153;DHT22;20426;48.372;10.888;2024-03-08T01:03:31;2.50;99.90
34153;DHT22;20426;48.372;10.888;2024-03-08T01:04:03;2.50;99.90
34153;DHT22;20426;48.372;10.888;2024-03-08T01:04:33;2.40;99.90
34153;DHT22;20426;48.372;10.888;2024-03-08T01:05:05;2.50;99.90
34153;DHT22;20426;48.372;10.888;2024-03-08T01:05:39;2.50;99.90
34153;DHT22;20426;48.372;10.888;2024-03-08T01:06:09;2.40;99.90
34153;DHT22;20426;48.372;10.888;2024-03-08T01:06:41;2.50;99.90
34153;DHT22;20426;48.372;10.888;2024-03-08T01:07:16;2.50;99.90
34153;DHT22;20426;48.372;10.888;2024-03-08T01:07:46;2.40;99.90
34153;DHT22;20426;48.372;10.888;2024-03-08T01:08:17;2.40;99.90
34153;DHT22;20426;48.372;10.888;2024-03-08T01:08:48;2.40;99.90
34153;DHT22;20426;48.372;10.888;2024-03-08T01:09:18;2.50;99.90
34153;DHT22;20426;48.372;10.888;2024-03-08T01:09:50;2.50;99.90
34153;DHT22;20426;48.372;10.888;2024-03-08T01:10:21;2.50;99.90
34153;DHT22;20426;48.372;10.888;2024-03-08T01:10:52;2.40;99.90
34153;DHT22;20426;48.372;10.888;2024-03-08T01:11:23;2.50;99.90
34153;DHT22;20426;48.372;10.888;2024-03-08T01:11:55;2.50;99.90
34153;DHT22;20426;48.372;10.888;2024-03-08T01:12:26;2.40;99.90
34153;DHT22;20426;48.372;10.888;2024-03-08T01:12:56;2.50;99.90
34153;DHT22;20426;48.372;10.888;2024-03-08T01:13:30;2.40;99.90
34153;DHT22;20426;48.372;10.888;2024-03-08T01:14:00;2.40;99.90
34153;DHT22;20426;48.372;10.888;2024-03-08T01:14:31;2.40;99.90
34153;DHT22;20426;48.372;10.888;2024-03-08T01:15:02;2.40;99.90
34153;DHT22;20426;48.372;10.888;2024-03-08T01:15:33;2.40;99.90
34153;DHT22;20426;48.372;10.888;2024-03-08T01:16:04;2.40;99.90
34153;DHT22;20426;48.372;10.888;2024-03-08T01:16:35;2.40;99.90
34153;DHT22;20426;48.372;10.888;2024-03-08T01:17:06;2.40;99.90
34153;DHT22;20426;48.372;10.888;2024-03-08T01:17:37;2.40;99.90
34153;DHT22;20426;48.372;10.888;2024-03-08T01:18:08;2.40;99.90
34153;DHT22;20426;48.372;10.888;2024-03-08T01:18:38;2.40;99.90
34153;DHT22;20426;48.372;10.888;2024-03-08T01:19:09;2.40;99.90
34153;DHT22;20426;48.372;10.888;2024-03-08T01:19:40;2.40;99.90
34153;DHT22;20426;48.372;10.888;2024-03-08T01:20:10;2.40;99.90
34153;DHT22;20426;48.372;10.888;2024-03-08T01:20:42;2.40;99.90
34153;DHT22;20426;48.372;10.888;2024-03-08T01:21:13;2.40;99.90
34153;DHT22;20426;48.372;10.888;2024-03-08T01:21:44;2.40;99.90
34153;DHT22;20426;48.372;10.888;2024-03-08T01:22:14;2.40;99.90
34153;DHT22;20426;48.372;10.888;2024-03-08T01:22:45;2.40;99.90
34153;DHT22;20426;48.372;10.888;2024-03-08T01:23:16;2.40;99.90
34153;DHT22;20426;48.372;10.888;2024-03-08T01:23:47;2.40;99.90
34153;DHT22;20426;48.372;10.888;2024-03-08T01:24:18;2.40;99.90
34153;DHT22;20426;48.372;10.888;2024-03-08T01:24:48;2.30;99.90
34153;DHT22;20426;48.372;10.888;2024-03-08T01:25:19;2.40;99.90
34153;DHT22;20426;48.372;10.888;2024-03-08T01:25:50;2.40;99.90
34153;DHT22;20426;48.372;10.888;2024-03-08T01:26:27;2.40;99.90
34153;DHT22;20426;48.372;10.888;2024-03-08T01:26:57;2.40;99.90
34153;DHT22;20426;48.372;10.888;2024-03-08T01:27:28;2.30;99.90
34153;DHT22;20426;48.372;10.888;2024-03-08T01:27:59;2.40;99.90
34153;DHT22;20426;48.372;10.888;2024-03-08T01:28:30;2.40;99.90
34153;DHT22;20426;48.372;10.888;2024-03-08T01:29:01;2.30;99.90
34153;DHT22;20426;48.372;10.888;2024-03-08T01:29:35;2.30;99.90
34153;DHT22;20426;48.372;10.888;2024-03-08T01:30:06;2.30;99.90
34153;DHT22;20426;48.372;10.888;2024-03-08T01:30:37;2.40;99.90
34153;DHT22;20426;48.372;10.888;2024-03-08T01:31:07;2.40;99.90
34153;DHT22;20426;48.372;10.888;2024-03-08T01:31:38;2.40;99.90
34153;DHT22;20426;48.372;10.888;2024-03-08T01:32:09;2.30;99.90
34153;DHT22;20426;48.372;10.888;2024-03-08T01:32:39;2.30;99.90
34153;DHT22;20426;48.372;10.888;2024-03-08T01:33:10;2.30;99.90
34153;DHT22;20426;48.372;10.888;2024-03-08T01:33:41;2.30;99.90
34153;DHT22;20426;48.372;10.888;2024-03-08T01:34:11;2.30;99.90
34153;DHT22;20426;48.372;10.888;2024-03-08T01:34:42;2.40;99.90
34153;DHT22;20426;48.372;10.888;2024-03-08T01:35:15;2.40;99.90
34153;DHT22;20426;48.372;10.888;2024-03-08T01:35:45;2.40;99.90
34153;DHT22;20426;48.372;10.888;2024-03-08T01:36:16;2.30;99.90
34153;DHT22;20426;48.372;10.888;2024-03-08T01:36:48;2.40;99.90
34153;DHT22;20426;48.372;10.888;2024-03-08T01:37:19;2.40;99.90
34153;DHT22;20426;48.372;10.888;2024-03-08T01:37:50;2.40;99.90
34153;DHT22;20426;48.372;10.888;2024-03-08T01:38:21;2.40;99.90
34153;DHT22;20426;48.372;10.888;2024-03-08T01:38:52;2.40;99.90
34153;DHT22;20426;48.372;10.888;2024-03-08T01:39:22;2.40;99.90
34153;DHT22;20426;48.372;10.888;2024-03-08T01:39:53;2.40;99.90
34153;DHT22;20426;48.372;10.888;2024-03-08T01:40:24;2.40;99.90
34153;DHT22;20426;48.372;10.888;2024-03-08T01:40:55;2.40;99.90
34153;DHT22;20426;48.372;10.888;2024-03-08T01:41:25;2.30;99.90
34153;DHT22;20426;48.372;10.888;2024-03-08T01:42:00;2.30;99.90
34153;DHT22;20426;48.372;10.888;2024-03-08T01:42:31;2.30;99.90
34153;DHT22;20426;48.372;10.888;2024-03-08T01:43:19;2.30;99.90
34153;DHT22;20426;48.372;10.888;2024-03-08T01:43:50;2.30;99.90
34153;DHT22;20426;48.372;10.888;2024-03-08T01:44:21;2.30;99.90
34153;DHT22;20426;48.372;10.888;2024-03-08T01:44:52;2.30;99.90
34153;DHT22;20426;48.372;10.888;2024-03-08T01:45:22;2.30;99.90
34153;DHT22;20426;48.372;10.888;2024-03-08T01:45:53;2.30;99.90
34153;DHT22;20426;48.372;10.888;2024-03-08T01:46:25;2.30;99.90
34153;DHT22;20426;48.372;10.888;2024-03-08T01:46:59;2.30;99.90
34153;DHT22;20426;48.372;10.888;2024-03-08T01:47:29;2.30;99.90
34153;DHT22;20426;48.372;10.888;2024-03-08T01:48:03;2.20;99.90
34153;DHT22;20426;48.372;10.888;2024-03-08T01:48:34;2.20;99.90
34153;DHT22;20426;48.372;10.888;2024-03-08T01:49:05;2.20;99.90
34153;DHT22;20426;48.372;10.888;2024-03-08T01:49:37;2.20;99.90
34153;DHT22;20426;48.372;10.888;2024-03-08T01:50:08;2.20;99.90
34153;DHT22;20426;48.372;10.888;2024-03-08T01:50:39;2.20;99.90
34153;DHT22;20426;48.372;10.888;2024-03-08T01:51:10;2.20;99.90
34153;DHT22;20426;48.372;10.888;2024-03-08T01:51:42;2.20;99.90
34153;DHT22;20426;48.372;10.888;2024-03-08T01:52:13;2.20;99.90
34153;DHT22;20426;48.372;10.888;2024-03-08T01:52:44;2.20;99.90
34153;DHT22;20426;48.372;10.888;2024-03-08T01:53:17;2.20;99.90
34153;DHT22;20426;48.372;10.888;2024-03-08T01:53:49;2.20;99.90
34153;DHT22;20426;48.372;10.888;2024-03-08T01:54:20;2.20;99.90
34153;DHT22;20426;48.372;10.888;2024-03-08T01:54:50;2.20;99.90
34153;DHT22;20426;48.372;10.888;2024-03-08T01:55:21;2.20;99.90
34153;DHT22;20426;48.372;10.888;2024-03-08T01:55:55;2.20;99.90
34153;DHT22;20426;48.372;10.888;2024-03-08T01:56:26;2.20;99.90
34153;DHT22;20426;48.372;10.888;2024-03-08T01:56:57;2.20;99.90
34153;DHT22;20426;48.372;10.888;2024-03-08T01:57:31;2.20;99.90
34153;DHT22;20426;48.372;10.888;2024-03-08T01:58:05;2.20;99.90
34153;DHT22;20426;48.372;10.888;2024-03-08T01:58:35;2.20;99.90
34153;DHT22;20426;48.372;10.888;2024-03-08T01:59:07;2.20;99.90
34153;DHT22;20426;48.372;10.888;2024-03-08T01:59:38;2.20;99.90
34153;DHT22;20426;48.372;10.888;2024-03-08T02:00:11;2.20;99.90
34153;DHT22;20426;48.372;10.888;2024-03-08T02:00:44;2.20;99.90
34153;DHT22;20426;48.372;10.888;2024-03-08T02:01:15;2.20;99.90
34153;DHT22;20426;48.372;10.888;2024-03-08T02:01:46;2.20;99.90
34153;DHT22;20426;48.372;10.888;2024-03-08T02:02:18;2.20;99.90
34153;DHT22;20426;48.372;10.888;2024-03-08T02:02:51;2.20;99.90
34153;DHT22;20426;48.372;10.888;2024-03-08T02:03:24;2.10;99.90
34153;DHT22;20426;48.372;10.888;2024-03-08T02:03:55;2.20;99.90
34153;DHT22;20426;48.372;10.888;2024-03-08T02:04:26;2.20;99.90
34153;DHT22;20426;48.372;10.888;2024-03-08T02:04:57;2.20;99.90
34153;DHT22;20426;48.372;10.888;2024-03-08T02:05:28;2.20;99.90
34153;DHT22;20426;48.372;10.888;2024-03-08T02:05:58;2.20;99.90
34153;DHT22;20426;48.372;10.888;2024-03-08T02:06:29;2.20;99.90
34153;DHT22;20426;48.372;10.888;2024-03-08T02:07:00;2.20;99.90
34153;DHT22;20426;48.372;10.888;2024-03-08T02:07:30;2.20;99.90
34153;DHT22;20426;48.372;10.888;2024-03-08T02:08:02;2.20;99.90
34153;DHT22;20426;48.372;10.888;2024-03-08T02:08:33;2.20;99.90
34153;DHT22;20426;48.372;10.888;2024-03-08T02:09:04;2.20;99.90
34153;DHT22;20426;48.372;10.888;2024-03-08T02:09:38;2.20;99.90
34153;DHT22;20426;48.372;10.888;2024-03-08T02:10:09;2.20;99.90
34153;DHT22;20426;48.372;10.888;2024-03-08T02:10:46;2.20;99.90
34153;DHT22;20426;48.372;10.888;2024-03-08T02:11:18;2.20;99.90
34153;DHT22;20426;48.372;10.888;2024-03-08T02:11:51;2.20;99.90
34153;DHT22;20426;48.372;10.888;2024-03-08T02:12:22;2.20;99.90
34153;DHT22;20426;48.372;10.888;2024-03-08T02:12:52;2.20;99.90
34153;DHT22;20426;48.372;10.888;2024-03-08T02:13:23;2.20;99.90
34153;DHT22;20426;48.372;10.888;2024-03-08T02:13:54;2.20;99.90
34153;DHT22;20426;48.372;10.888;2024-03-08T02:14:24;2.20;99.90
34153;DHT22;20426;48.372;10.888;2024-03-08T02:14:55;2.20;99.90
34153;DHT22;20426;48.372;10.888;2024-03-08T02:15:26;2.20;99.90
34153;DHT22;20426;48.372;10.888;2024-03-08T02:15:59;2.20;99.90
34153;DHT22;20426;48.372;10.888;2024-03-08T02:16:29;2.10;99.90
34153;DHT22;20426;48.372;10.888;2024-03-08T02:17:01;2.20;99.90
34153;DHT22;20426;48.372;10.888;2024-03-08T02:17:32;2.10;99.90
34153;DHT22;20426;48.372;10.888;2024-03-08T02:18:04;2.10;99.90
34153;DHT22;20426;48.372;10.888;2024-03-08T02:18:35;2.10;99.90
34153;DHT22;20426;48.372;10.888;2024-03-08T02:19:06;2.10;99.90
34153;DHT22;20426;48.372;10.888;2024-03-08T02:19:40;2.10;99.90
34153;DHT22;20426;48.372;10.888;2024-03-08T02:20:11;2.10;99.90
34153;DHT22;20426;48.372;10.888;2024-03-08T02:20:44;2.10;99.90
34153;DHT22;20426;48.372;10.888;2024-03-08T02:21:17;2.20;99.90
34153;DHT22;20426;48.372;10.888;2024-03-08T02:21:48;2.20;99.90
34153;DHT22;20426;48.372;10.888;2024-03-08T02:22:19;2.10;99.90
34153;DHT22;20426;48.372;10.888;2024-03-08T02:22:50;2.10;99.90
34153;DHT22;20426;48.372;10.888;2024-03-08T02:23:21;2.10;99.90
34153;DHT22;20426;48.372;10.888;2024-03-08T02:23:52;2.10;99.90
34153;DHT22;20426;48.372;10.888;2024-03-08T02:24:23;2.10;99.90
34153;DHT22;20426;48.372;10.888;2024-03-08T02:24:55;2.10;99.90
34153;DHT22;20426;48.372;10.888;2024-03-08T02:25:26;2.10;99.90
34153;DHT22;20426;48.372;10.888;2024-03-08T02:25:57;2.10;99.90
34153;DHT22;20426;48.372;10.888;2024-03-08T02:26:27;2.10;99.90
34153;DHT22;20426;48.372;10.888;2024-03-08T02:26:58;2.10;99.90
34153;DHT22;20426;48.372;10.888;2024-03-08T02:27:29;2.10;99.90
34153;DHT22;20426;48.372;10.888;2024-03-08T02:28:00;2.10;99.90
34153;DHT22;20426;48.372;10.888;2024-03-08T02:28:31;2.10;99.90
34153;DHT22;20426;48.372;10.888;2024-03-08T02:29:02;2.10;99.90
34153;DHT22;20426;48.372;10.888;2024-03-08T02:29:33;2.10;99.90
34153;DHT22;20426;48.372;10.888;2024-03-08T02:30:05;2.10;99.90
34153;DHT22;20426;48.372;10.888;2024-03-08T02:30:35;2.10;99.90
34153;DHT22;20426;48.372;10.888;2024-03-08T02:31:06;2.00;99.90
34153;DHT22;20426;48.372;10.888;2024-03-08T02:31:38;2.00;99.90
34153;DHT22;20426;48.372;10.888;2024-03-08T02:32:09;2.00;99.90
34153;DHT22;20426;48.372;10.888;2024-03-08T02:32:40;2.00;99.90
34153;DHT22;20426;48.372;10.888;2024-03-08T02:33:13;2.00;99.90
34153;DHT22;20426;48.372;10.888;2024-03-08T02:33:45;2.00;99.90
34153;DHT22;20426;48.372;10.888;2024-03-08T02:34:17;2.00;99.90
34153;DHT22;20426;48.372;10.888;2024-03-08T02:34:48;2.10;99.90
34153;DHT22;20426;48.372;10.888;2024-03-08T02:35:19;2.10;99.90
34153;DHT22;20426;48.372;10.888;2024-03-08T02:35:50;2.10;99.90
34153;DHT22;20426;48.372;10.888;2024-03-08T02:36:21;2.10;99.90
34153;DHT22;20426;48.372;10.888;2024-03-08T02:36:52;2.00;99.90
34153;DHT22;20426;48.372;10.888;2024-03-08T02:37:22;2.10;99.90
34153;DHT22;20426;48.372;10.888;2024-03-08T02:37:53;2.10;99.90
34153;DHT22;20426;48.372;10.888;2024-03-08T02:38:24;2.00;99.90
34153;DHT22;20426;48.372;10.888;2024-03-08T02:38:54;2.10;99.90
34153;DHT22;20426;48.372;10.888;2024-03-08T02:39:26;2.00;99.90
34153;DHT22;20426;48.372;10.888;2024-03-08T02:39:56;2.00;99.90
34153;DHT22;20426;48.372;10.888;2024-03-08T02:40:27;2.00;99.90
34153;DHT22;20426;48.372;10.888;2024-03-08T02:40:57;2.00;99.90
34153;DHT22;20426;48.372;10.888;2024-03-08T02:41:28;2.00;99.90
34153;DHT22;20426;48.372;10.888;2024-03-08T02:41:59;2.00;99.90
34153;DHT22;20426;48.372;10.888;2024-03-08T02:42:29;2.00;99.90
34153;DHT22;20426;48.372;10.888;2024-03-08T02:43:00;2.00;99.90
34153;DHT22;20426;48.372;10.888;2024-03-08T02:43:31;2.00;99.90
34153;DHT22;20426;48.372;10.888;2024-03-08T02:44:01;2.00;99.90
34153;DHT22;20426;48.372;10.888;2024-03-08T02:44:32;2.00;99.90
34153;DHT22;20426;48.372;10.888;2024-03-08T02:45:04;2.00;99.90
34153;DHT22;20426;48.372;10.888;2024-03-08T02:45:36;2.00;99.90
34153;DHT22;20426;48.372;10.888;2024-03-08T02:46:07;2.00;99.90
34153;DHT22;20426;48.372;10.888;2024-03-08T02:46:37;2.00;99.90
34153;DHT22;20426;48.372;10.888;2024-03-08T02:47:08;2.00;99.90
34153;DHT22;20426;48.372;10.888;2024-03-08T02:47:39;2.00;99.90
34153;DHT22;20426;48.372;10.888;2024-03-08T02:48:10;2.00;99.90
34153;DHT22;20426;48.372;10.888;2024-03-08T02:48:41;2.00;99.90
34153;DHT22;20426;48.372;10.888;2024-03-08T02:49:12;2.00;99.90
34153;DHT22;20426;48.372;10.888;2024-03-08T02:49:42;2.00;99.90
34153;DHT22;20426;48.372;10.888;2024-03-08T02:50:13;2.00;99.90
34153;DHT22;20426;48.372;10.888;2024-03-08T02:50:46;2.00;99.90
34153;DHT22;20426;48.372;10.888;2024-03-08T02:51:17;2.00;99.90
34153;DHT22;20426;48.372;10.888;2024-03-08T02:51:47;2.00;99.90
34153;DHT22;20426;48.372;10.888;2024-03-08T02:52:18;2.00;99.90
34153;DHT22;20426;48.372;10.888;2024-03-08T02:52:51;2.00;99.90
34153;DHT22;20426;48.372;10.888;2024-03-08T02:53:22;2.00;99.90
34153;DHT22;20426;48.372;10.888;2024-03-08T02:53:53;2.00;99.90
34153;DHT22;20426;48.372;10.888;2024-03-08T02:54:23;2.00;99.90
34153;DHT22;20426;48.372;10.888;2024-03-08T02:54:54;2.00;99.90
34153;DHT22;20426;48.372;10.888;2024-03-08T02:55:25;2.00;99.90
34153;DHT22;20426;48.372;10.888;2024-03-08T02:55:56;2.00;99.90
34153;DHT22;20426;48.372;10.888;2024-03-08T02:56:27;2.00;99.90
34153;DHT22;20426;48.372;10.888;2024-03-08T02:56:57;2.00;99.90
34153;DHT22;20426;48.372;10.888;2024-03-08T02:57:28;2.00;99.90
34153;DHT22;20426;48.372;10.888;2024-03-08T02:57:59;2.00;99.90
34153;DHT22;20426;48.372;10.888;2024-03-08T02:58:29;2.00;99.90
34153;DHT22;20426;48.372;10.888;2024-03-08T02:59:00;2.00;99.90
34153;DHT22;20426;48.372;10.888;2024-03-08T02:59:31;2.00;99.90
34153;DHT22;20426;48.372;10.888;2024-03-08T03:00:02;1.90;99.90
34153;DHT22;20426;48.372;10.888;2024-03-08T03:00:32;2.00;99.90
34153;DHT22;20426;48.372;10.888;2024-03-08T03:01:04;1.90;99.90
34153;DHT22;20426;48.372;10.888;2024-03-08T03:01:35;2.00;99.90
34153;DHT22;20426;48.372;10.888;2024-03-08T03:02:07;2.00;99.90
34153;DHT22;20426;48.372;10.888;2024-03-08T03:02:37;1.90;99.90
34153;DHT22;20426;48.372;10.888;2024-03-08T03:03:11;2.00;99.90
34153;DHT22;20426;48.372;10.888;2024-03-08T03:03:41;2.00;99.90
34153;DHT22;20426;48.372;10.888;2024-03-08T03:04:13;2.00;99.90
34153;DHT22;20426;48.372;10.888;2024-03-08T03:04:44;2.00;99.90
34153;DHT22;20426;48.372;10.888;2024-03-08T03:05:14;1.90;99.90
34153;DHT22;20426;48.372;10.888;2024-03-08T03:05:45;2.00;99.90
34153;DHT22;20426;48.372;10.888;2024-03-08T03:06:16;1.90;99.90
34153;DHT22;20426;48.372;10.888;2024-03-08T03:06:46;2.00;99.90
34153;DHT22;20426;48.372;10.888;2024-03-08T03:07:17;2.00;99.90
34153;DHT22;20426;48.372;10.888;2024-03-08T03:07:48;1.90;99.90
34153;DHT22;20426;48.372;10.888;2024-03-08T03:08:19;1.90;99.90
34153;DHT22;20426;48.372;10.888;2024-03-08T03:08:49;1.90;99.90
34153;DHT22;20426;48.372;10.888;2024-03-08T03:09:21;1.90;99.90
34153;DHT22;20426;48.372;10.888;2024-03-08T03:09:54;1.90;99.90
34153;DHT22;20426;48.372;10.888;2024-03-08T03:10:25;1.90;99.90
34153;DHT22;20426;48.372;10.888;2024-03-08T03:10:56;1.90;99.90
34153;DHT22;20426;48.372;10.888;2024-03-08T03:11:27;1.90;99.90
34153;DHT22;20426;48.372;10.888;2024-03-08T03:11:57;1.90;99.90
34153;DHT22;20426;48.372;10.888;2024-03-08T03:12:29;1.90;99.90
34153;DHT22;20426;48.372;10.888;2024-03-08T03:13:00;1.90;99.90
34153;DHT22;20426;48.372;10.888;2024-03-08T03:13:31;1.90;99.90
34153;DHT22;20426;48.372;10.888;2024-03-08T03:14:01;1.90;99.90
34153;DHT22;20426;48.372;10.888;2024-03-08T03:14:32;1.90;99.90
34153;DHT22;20426;48.372;10.888;2024-03-08T03:15:04;1.90;99.90
34153;DHT22;20426;48.372;10.888;2024-03-08T03:15:37;1.90;99.90
34153;DHT22;20426;48.372;10.888;2024-03-08T03:16:08;1.80;99.90
34153;DHT22;20426;48.372;10.888;2024-03-08T03:16:40;1.80;99.90
34153;DHT22;20426;48.372;10.888;2024-03-08T03:17:14;1.80;99.90